Time;durP1;ratioP1;P1;durP2;ratioP2;P2;SDS_P1;SDS_P2;PMS_P1;PMS_P2;Temp;Humidity;BMP_temperature;BMP_pressure;BME280_temperature;BME280_humidity;BME280_pressure;Samples;Min_cycle;Max_cycle;Signal;HPM_P1;HPM_P2
2023/09/09 00:01:26;;;;;;;0.20;0.20;;;18.00;99.90;;;;;;5127621;27;20038;-76
2023/09/09 00:03:53;;;;;;;0.20;0.20;;;18.00;99.90;;;;;;5145506;27;20034;-77
2023/09/09 00:06:18;;;;;;;0.20;0.20;;;17.90;99.90;;;;;;5124253;27;20074;-77
2023/09/09 00:08:44;;;;;;;;;;;17.90;99.90;;;;;;5146879;27;20039;-77
2023/09/09 00:11:10;;;;;;;0.40;0.40;;;17.90;99.90;;;;;;5136600;27;20383;-76
2023/09/09 00:13:36;;;;;;;;;;;17.90;99.90;;;;;;5127078;27;20034;-77
2023/09/09 00:16:02;;;;;;;0.10;0.10;;;17.80;99.90;;;;;;5127281;27;20368;-77
2023/09/09 00:18:27;;;;;;;;;;;17.80;99.90;;;;;;5144204;27;20127;-77
2023/09/09 00:20:53;;;;;;;0.20;0.20;;;17.80;99.90;;;;;;5141043;27;20081;-77
2023/09/09 00:23:19;;;;;;;;;;;17.70;99.90;;;;;;5142943;27;20074;-77
2023/09/09 00:25:44;;;;;;;0.22;0.22;;;17.70;99.90;;;;;;5140847;27;19966;-76
2023/09/09 00:28:11;;;;;;;;;;;17.70;99.90;;;;;;5122372;27;20081;-76
2023/09/09 00:30:37;;;;;;;0.20;0.20;;;17.70;99.90;;;;;;5135185;27;19923;-76
2023/09/09 00:33:04;;;;;;;0.20;0.20;;;17.70;99.90;;;;;;5144969;27;20027;-77
2023/09/09 00:35:32;;;;;;;0.22;0.22;;;17.60;99.90;;;;;;5123780;27;20051;-77
2023/09/09 00:37:58;;;;;;;0.20;0.20;;;17.60;99.90;;;;;;5144748;27;20534;-76
2023/09/09 00:40:24;;;;;;;;;;;17.60;99.90;;;;;;5127251;27;20043;-77
2023/09/09 00:42:51;;;;;;;0.20;0.20;;;17.60;99.90;;;;;;5144188;27;20008;-77
2023/09/09 00:45:17;;;;;;;0.20;0.20;;;17.60;99.90;;;;;;5144461;27;20160;-77
2023/09/09 00:47:44;;;;;;;;;;;17.50;99.90;;;;;;5105368;27;20570;-77
2023/09/09 00:50:11;;;;;;;0.30;0.30;;;17.10;99.90;;;;;;5144467;27;20369;-77
2023/09/09 00:52:42;;;;;;;0.20;0.20;;;17.50;99.90;;;;;;5126093;27;20141;-78
2023/09/09 00:55:10;;;;;;;0.22;0.22;;;17.50;99.90;;;;;;5141218;27;20393;-78
2023/09/09 00:57:36;;;;;;;0.20;0.20;;;17.50;99.90;;;;;;5140865;27;20050;-78
2023/09/09 01:00:09;;;;;;;;;;;17.50;99.90;;;;;;5143506;27;20412;-79
2023/09/09 01:02:38;;;;;;;0.20;0.20;;;17.50;99.90;;;;;;5144779;27;20014;-78
2023/09/09 01:05:09;;;;;;;0.20;0.20;;;17.40;99.90;;;;;;5125324;27;20637;-78
2023/09/09 01:07:48;;;;;;;0.10;0.10;;;17.40;99.90;;;;;;5122972;27;20115;-78
2023/09/09 01:10:16;;;;;;;0.28;0.28;;;17.40;99.90;;;;;;5142354;27;20051;-78
2023/09/09 01:12:43;;;;;;;0.13;0.13;;;17.40;99.90;;;;;;5118963;27;20477;-78
2023/09/09 01:15:11;;;;;;;0.20;0.20;;;17.40;99.90;;;;;;5144042;27;20046;-78
2023/09/09 01:17:38;;;;;;;0.25;0.25;;;17.30;99.90;;;;;;5135824;27;20449;-77
2023/09/09 01:20:14;;;;;;;0.30;0.30;;;17.30;99.90;;;;;;5145000;27;20043;-77
2023/09/09 01:22:44;;;;;;;0.10;0.10;;;17.30;99.90;;;;;;5105148;27;20074;-76
2023/09/09 01:25:11;;;;;;;0.20;0.20;;;17.30;99.90;;;;;;5139016;27;20133;-78
2023/09/09 01:27:37;;;;;;;0.20;0.20;;;17.30;99.90;;;;;;5124562;27;20378;-77
2023/09/09 01:30:03;;;;;;;;;;;17.20;99.90;;;;;;5138315;27;20054;-77
2023/09/09 01:32:29;;;;;;;0.30;0.30;;;17.20;99.90;;;;;;5131452;27;19938;-77
2023/09/09 01:34:55;;;;;;;0.20;0.20;;;17.20;99.90;;;;;;5140242;27;20031;-77
2023/09/09 01:37:21;;;;;;;;;;;17.10;99.90;;;;;;5148670;27;20492;-77
2023/09/09 01:39:47;;;;;;;0.20;0.20;;;17.10;99.90;;;;;;5143443;27;19927;-77
2023/09/09 01:42:13;;;;;;;0.13;0.13;;;17.10;99.90;;;;;;5146589;27;20051;-77
2023/09/09 01:44:39;;;;;;;;;;;17.10;99.90;;;;;;5141506;27;20451;-77
2023/09/09 01:47:05;;;;;;;0.20;0.20;;;17.10;99.90;;;;;;5143398;27;20021;-77
2023/09/09 01:49:31;;;;;;;0.20;0.20;;;17.10;99.90;;;;;;5121966;27;20078;-77
2023/09/09 01:51:56;;;;;;;;;;;17.10;99.90;;;;;;5141461;27;20930;-76
2023/09/09 01:54:22;;;;;;;0.20;0.20;;;17.10;99.90;;;;;;5124992;27;20021;-77
2023/09/09 01:56:47;;;;;;;;;;;17.00;99.90;;;;;;5124972;27;20430;-77
2023/09/09 01:59:13;;;;;;;0.20;0.20;;;17.00;99.90;;;;;;5140424;27;19919;-76
2023/09/09 02:01:39;;;;;;;;;;;17.00;99.90;;;;;;5122360;27;20055;-77
2023/09/09 02:04:04;;;;;;;0.20;0.20;;;17.00;99.90;;;;;;5140247;27;20014;-77
2023/09/09 02:06:30;;;;;;;;;;;17.00;99.90;;;;;;5143764;27;20042;-77
2023/09/09 02:08:56;;;;;;;0.10;0.10;;;17.00;99.90;;;;;;5142146;27;19923;-77
2023/09/09 02:11:21;;;;;;;;;;;16.90;99.90;;;;;;5116776;27;20043;-77
2023/09/09 02:13:47;;;;;;;0.20;0.20;;;16.90;99.90;;;;;;5152459;27;19978;-76
2023/09/09 02:16:12;;;;;;;;;;;16.90;99.90;;;;;;5140030;27;20054;-77
2023/09/09 02:18:39;;;;;;;0.20;0.20;;;16.90;99.90;;;;;;5135345;27;20417;-78
2023/09/09 02:21:09;;;;;;;0.47;0.47;;;16.90;99.90;;;;;;5127073;27;20054;-77
2023/09/09 02:23:36;;;;;;;0.20;0.20;;;16.90;99.90;;;;;;5134351;27;20528;-77
2023/09/09 02:26:02;;;;;;;0.20;0.20;;;16.80;99.90;;;;;;5143280;27;20116;-77
2023/09/09 02:28:30;;;;;;;;;;;16.90;99.90;;;;;;5143176;27;20646;-77
2023/09/09 02:30:56;;;;;;;0.20;0.20;;;16.80;99.90;;;;;;5131030;27;20350;-77
2023/09/09 02:33:21;;;;;;;;;;;16.80;99.90;;;;;;5140505;27;20073;-76
2023/09/09 02:35:47;;;;;;;0.20;0.20;;;16.80;99.90;;;;;;5139886;27;20425;-77
2023/09/09 02:38:12;;;;;;;;;;;16.80;99.90;;;;;;5121757;27;20482;-76
2023/09/09 02:40:38;;;;;;;0.20;0.20;;;16.80;99.90;;;;;;5121873;27;20258;-77
2023/09/09 02:43:04;;;;;;;;;;;16.80;99.90;;;;;;5140221;27;20054;-77
2023/09/09 02:45:29;;;;;;;0.35;0.35;;;16.80;99.90;;;;;;5121830;27;19919;-77
2023/09/09 02:47:55;;;;;;;;;;;16.80;99.90;;;;;;5144262;27;20053;-77
2023/09/09 02:50:20;;;;;;;0.10;0.10;;;16.80;99.90;;;;;;5146443;27;20011;-77
2023/09/09 02:52:49;;;;;;;;;;;16.80;99.90;;;;;;5143700;27;20039;-77
2023/09/09 02:55:15;;;;;;;0.20;0.20;;;16.80;99.90;;;;;;5143801;27;19983;-77
2023/09/09 02:57:41;;;;;;;0.28;0.28;;;16.80;99.90;;;;;;5125829;27;20043;-77
2023/09/09 03:00:10;;;;;;;;;;;16.80;99.90;;;;;;5124883;27;20043;-77
2023/09/09 03:02:35;;;;;;;0.10;0.10;;;16.80;99.90;;;;;;5125177;27;20329;-78
2023/09/09 03:05:03;;;;;;;;;;;16.80;99.90;;;;;;5134730;27;20107;-77
2023/09/09 03:07:28;;;;;;;;;;;16.70;99.90;;;;;;5109420;27;19923;-77
2023/09/09 03:09:55;;;;;;;0.30;0.30;;;16.70;99.90;;;;;;5143425;27;19933;-77
2023/09/09 03:12:22;;;;;;;0.20;0.20;;;16.70;99.90;;;;;;5119781;27;20120;-76
2023/09/09 03:14:48;;;;;;;0.30;0.30;;;16.70;99.90;;;;;;5121950;27;20046;-77
2023/09/09 03:17:14;;;;;;;;;;;16.80;99.90;;;;;;5117728;27;20126;-76
2023/09/09 03:19:39;;;;;;;0.10;0.10;;;16.70;99.90;;;;;;5142817;27;19922;-76
2023/09/09 03:22:05;;;;;;;;;;;16.70;99.90;;;;;;5127552;27;20496;-77
2023/09/09 03:24:31;;;;;;;0.20;0.20;;;16.70;99.90;;;;;;5126083;27;19925;-77
2023/09/09 03:26:56;;;;;;;;;;;16.70;99.90;;;;;;5128001;27;20401;-77
2023/09/09 03:29:22;;;;;;;0.30;0.30;;;16.60;99.90;;;;;;5086205;27;20369;-77
2023/09/09 03:31:48;;;;;;;;;;;16.60;99.90;;;;;;5116567;27;20140;-77
2023/09/09 03:34:14;;;;;;;0.20;0.20;;;16.50;99.90;;;;;;5124556;27;19999;-76
2023/09/09 03:36:40;;;;;;;;;;;16.50;99.90;;;;;;5145466;27;20496;-77
2023/09/09 03:39:05;;;;;;;0.30;0.30;;;16.50;99.90;;;;;;5127101;27;19926;-77
2023/09/09 03:41:31;;;;;;;;;;;16.50;99.90;;;;;;5138575;27;20473;-78
2023/09/09 03:43:57;;;;;;;0.22;0.22;;;16.50;99.90;;;;;;5115365;27;19933;-77
2023/09/09 03:46:22;;;;;;;;;;;16.50;99.90;;;;;;5142685;27;20055;-77
2023/09/09 03:48:49;;;;;;;0.10;0.10;;;16.50;99.90;;;;;;5129147;27;19919;-77
2023/09/09 03:51:14;;;;;;;0.20;0.20;;;16.50;99.90;;;;;;5124001;27;20047;-77
2023/09/09 03:53:40;;;;;;;;;;;16.50;99.90;;;;;;5133003;27;20469;-76
2023/09/09 03:56:06;;;;;;;0.30;0.30;;;16.40;99.90;;;;;;5123908;27;19958;-77
2023/09/09 03:58:31;;;;;;;;;;;16.50;99.90;;;;;;5143142;27;20392;-77
2023/09/09 04:01:05;;;;;;;0.30;0.30;;;16.40;99.90;;;;;;5142505;27;20399;-77
2023/09/09 04:03:35;;;;;;;0.20;0.20;;;16.40;99.90;;;;;;5127584;27;20091;-76
2023/09/09 04:06:10;;;;;;;0.30;0.30;;;16.40;99.90;;;;;;5108971;27;20102;-77
2023/09/09 04:08:37;;;;;;;0.20;0.20;;;16.40;99.90;;;;;;5147287;27;20073;-76
2023/09/09 04:11:03;;;;;;;0.20;0.20;;;16.40;99.90;;;;;;5117711;27;20111;-76
2023/09/09 04:13:29;;;;;;;0.30;0.30;;;16.40;99.90;;;;;;5136779;27;20035;-76
2023/09/09 04:15:57;;;;;;;0.20;0.20;;;16.40;99.90;;;;;;5144160;27;20053;-76
2023/09/09 04:18:23;;;;;;;0.20;0.20;;;16.40;99.90;;;;;;5143729;27;20049;-76
2023/09/09 04:20:49;;;;;;;0.20;0.20;;;16.40;99.90;;;;;;5127245;27;20054;-76
2023/09/09 04:23:17;;;;;;;0.15;0.15;;;16.40;99.90;;;;;;5126290;27;20249;-77
2023/09/09 04:25:46;;;;;;;0.10;0.10;;;16.30;99.90;;;;;;5141950;27;20047;-76
2023/09/09 04:28:13;;;;;;;0.20;0.20;;;16.30;99.90;;;;;;5140808;27;20042;-76
2023/09/09 04:30:39;;;;;;;0.10;0.10;;;16.30;99.90;;;;;;5115509;27;20129;-76
2023/09/09 04:33:07;;;;;;;0.20;0.20;;;16.30;99.90;;;;;;5138821;27;20043;-76
2023/09/09 04:35:32;;;;;;;0.20;0.20;;;16.30;99.90;;;;;;5145026;27;20046;-76
2023/09/09 04:37:58;;;;;;;;;;;16.30;99.90;;;;;;5145121;27;20052;-76
2023/09/09 04:40:24;;;;;;;0.20;0.20;;;16.30;99.90;;;;;;5144810;27;19927;-76
2023/09/09 04:42:49;;;;;;;;;;;16.30;99.90;;;;;;5126464;27;20043;-77
2023/09/09 04:45:15;;;;;;;0.25;0.25;;;16.30;99.90;;;;;;5117030;27;19931;-76
2023/09/09 04:47:41;;;;;;;;;;;16.30;99.90;;;;;;5112863;28;20196;-76
2023/09/09 04:50:07;;;;;;;0.20;0.20;;;16.30;99.90;;;;;;5093422;28;20050;-76
2023/09/09 04:52:33;;;;;;;;;;;16.30;99.90;;;;;;5112288;27;20044;-76
2023/09/09 04:54:59;;;;;;;0.15;0.15;;;16.30;99.90;;;;;;5111136;28;20514;-76
2023/09/09 04:57:24;;;;;;;;;;;16.30;99.90;;;;;;5111789;27;20047;-76
2023/09/09 04:59:50;;;;;;;0.20;0.20;;;16.30;99.90;;;;;;5093188;28;20382;-76
2023/09/09 05:02:15;;;;;;;;;;;16.30;99.90;;;;;;5111714;28;20051;-77
2023/09/09 05:04:41;;;;;;;0.20;0.20;;;16.30;99.90;;;;;;5112229;28;19947;-76
2023/09/09 05:07:09;;;;;;;;;;;16.30;99.90;;;;;;5106557;28;20130;-77
2023/09/09 05:09:35;;;;;;;0.20;0.20;;;16.30;99.90;;;;;;5112268;28;19923;-76
2023/09/09 05:12:01;;;;;;;;;;;16.30;99.90;;;;;;5103859;28;20051;-77
2023/09/09 05:14:27;;;;;;;0.10;0.10;;;16.30;99.90;;;;;;5111860;28;20401;-76
2023/09/09 05:16:52;;;;;;;;;;;16.30;99.90;;;;;;5110696;28;20047;-76
2023/09/09 05:19:18;;;;;;;0.20;0.20;;;16.40;99.90;;;;;;5111267;28;20480;-78
2023/09/09 05:21:43;;;;;;;;;;;16.40;99.90;;;;;;5111573;28;20070;-77
2023/09/09 05:24:09;;;;;;;0.17;0.17;;;16.40;99.90;;;;;;5110408;28;19926;-77
2023/09/09 05:26:35;;;;;;;;;;;16.50;99.90;;;;;;5110793;28;20073;-77
2023/09/09 05:29:01;;;;;;;0.20;0.20;;;16.50;99.90;;;;;;5108324;28;20459;-77
2023/09/09 05:31:27;;;;;;;0.20;0.20;;;16.50;99.90;;;;;;5105946;28;20113;-77
2023/09/09 05:33:53;;;;;;;;;;;16.50;99.90;;;;;;5112373;28;20385;-77
2023/09/09 05:36:19;;;;;;;0.20;0.20;;;16.60;99.90;;;;;;5109895;28;20094;-77
2023/09/09 05:38:44;;;;;;;;;;;16.70;99.90;;;;;;5093685;28;20047;-77
2023/09/09 05:41:10;;;;;;;0.30;0.30;;;16.70;99.90;;;;;;5109756;28;19931;-76
2023/09/09 05:43:35;;;;;;;;;;;16.70;99.90;;;;;;5109783;28;20146;-76
2023/09/09 05:46:01;;;;;;;0.25;0.25;;;16.80;99.90;;;;;;5131481;27;19981;-76
2023/09/09 05:48:27;;;;;;;;;;;16.80;99.90;;;;;;5140583;27;20043;-77
2023/09/09 05:50:55;;;;;;;0.22;0.22;;;16.90;99.90;;;;;;5142432;27;19923;-77
2023/09/09 05:53:21;;;;;;;0.20;0.20;;;16.90;99.90;;;;;;5124605;27;20043;-77
2023/09/09 05:55:47;;;;;;;0.30;0.30;;;16.90;99.90;;;;;;5124904;27;20042;-77
2023/09/09 05:58:13;;;;;;;;;;;17.00;99.90;;;;;;5140024;27;20043;-77
2023/09/09 06:00:38;;;;;;;0.40;0.40;;;17.10;99.90;;;;;;5140657;27;19919;-77
2023/09/09 06:03:04;;;;;;;;;;;17.20;99.90;;;;;;5140014;27;20367;-77
2023/09/09 06:05:30;;;;;;;4.03;1.70;;;17.20;99.90;;;;;;5130072;27;19988;-77
2023/09/09 06:07:58;;;;;;;;;;;17.30;99.90;;;;;;5131904;27;20046;-77
2023/09/09 06:10:25;;;;;;;0.40;0.40;;;17.30;99.90;;;;;;5104328;27;20051;-77
2023/09/09 06:12:50;;;;;;;0.77;0.77;;;17.40;99.90;;;;;;5140396;27;20051;-77
2023/09/09 06:15:16;;;;;;;;;;;17.40;99.90;;;;;;5106146;27;20065;-77
2023/09/09 06:17:42;;;;;;;0.50;0.50;;;17.50;99.90;;;;;;5143305;27;19968;-77
2023/09/09 06:20:08;;;;;;;;;;;17.60;99.90;;;;;;5124974;27;20170;-77
2023/09/09 06:22:34;;;;;;;0.22;0.22;;;17.70;99.90;;;;;;5143340;27;19923;-77
2023/09/09 06:25:01;;;;;;;0.47;0.47;;;17.80;99.90;;;;;;5143324;27;20046;-77
2023/09/09 06:27:27;;;;;;;3.60;1.45;;;18.00;99.90;;;;;;5112667;27;20051;-77
2023/09/09 06:29:52;;;;;;;;;;;18.10;99.90;;;;;;5116743;27;20103;-77
2023/09/09 06:32:18;;;;;;;0.25;0.25;;;18.20;99.90;;;;;;5130839;27;19927;-77
2023/09/09 06:34:43;;;;;;;;;;;18.20;99.90;;;;;;5142374;27;20081;-77
2023/09/09 06:37:10;;;;;;;0.17;0.17;;;18.60;99.90;;;;;;5124426;27;19919;-77
2023/09/09 06:39:36;;;;;;;0.57;0.55;;;18.70;99.90;;;;;;5141742;27;20075;-77
2023/09/09 06:42:01;;;;;;;;;;;18.90;99.90;;;;;;5131867;27;20435;-77
2023/09/09 06:44:28;;;;;;;0.75;0.75;;;19.10;99.90;;;;;;5120602;27;19919;-77
2023/09/09 06:46:54;;;;;;;0.52;0.52;;;19.30;99.90;;;;;;5142562;27;20084;-77
2023/09/09 06:49:19;;;;;;;;;;;19.50;99.90;;;;;;5142073;27;20043;-77
2023/09/09 06:51:46;;;;;;;1.95;0.77;;;19.60;99.90;;;;;;5139822;27;19925;-77
2023/09/09 06:54:12;;;;;;;0.80;0.80;;;19.70;99.90;;;;;;5142240;27;20121;-77
2023/09/09 06:56:37;;;;;;;0.70;0.70;;;19.90;99.90;;;;;;5124442;27;20117;-77
2023/09/09 06:59:03;;;;;;;;;;;20.00;99.90;;;;;;5141153;27;20046;-77
2023/09/09 07:01:29;;;;;;;0.47;0.47;;;20.10;99.90;;;;;;5130456;28;19929;-77
2023/09/09 07:03:55;;;;;;;3.67;1.95;;;20.30;99.90;;;;;;5139169;27;20039;-77
2023/09/09 07:06:20;;;;;;;5.78;2.85;;;20.40;99.90;;;;;;5103466;28;20043;-76
2023/09/09 07:08:47;;;;;;;;;;;20.50;99.90;;;;;;5145757;27;20074;-76
2023/09/09 07:11:13;;;;;;;4.67;3.93;;;20.50;99.90;;;;;;5114092;28;19919;-76
2023/09/09 07:13:39;;;;;;;2.63;2.40;;;20.60;99.90;;;;;;5120334;28;20443;-77
2023/09/09 07:16:04;;;;;;;2.38;2.00;;;20.60;99.90;;;;;;5121029;28;20055;-77
2023/09/09 07:18:30;;;;;;;1.52;1.08;;;20.70;99.90;;;;;;5137798;27;20043;-77
2023/09/09 07:20:59;;;;;;;3.53;1.90;;;20.90;99.90;;;;;;5113680;28;20553;-77
2023/09/09 07:23:25;;;;;;;1.77;1.67;;;;;;;;;;5139733;27;20047;-76
2023/09/09 07:25:52;;;;;;;2.42;1.65;;;;;;;;;;5123703;27;20053;-76
2023/09/09 07:28:18;;;;;;;4.00;2.25;;;;;;;;;;5142376;27;20054;-76
2023/09/09 07:30:44;;;;;;;2.08;1.52;;;;;;;;;;5112280;28;20068;-77
2023/09/09 07:33:10;;;;;;;4.28;1.70;;;;;;;;;;5119224;27;20133;-77
2023/09/09 07:35:38;;;;;;;4.25;1.17;;;;;;;;;;5140059;27;20655;-77
2023/09/09 07:38:05;;;;;;;1.83;0.77;;;21.30;99.90;;;;;;5139462;27;20104;-77
2023/09/09 07:40:30;;;;;;;3.05;2.75;;;21.30;99.90;;;;;;5138534;27;20126;-78
2023/09/09 07:42:56;;;;;;;2.25;1.85;;;21.30;99.90;;;;;;5139519;27;20443;-77
2023/09/09 07:45:22;;;;;;;;;;;21.40;99.90;;;;;;5145718;27;20441;-77
2023/09/09 07:47:48;;;;;;;3.47;1.88;;;21.50;99.90;;;;;;5124129;27;19976;-77
2023/09/09 07:50:13;;;;;;;4.65;1.92;;;21.70;99.90;;;;;;5127128;27;20083;-76
2023/09/09 07:52:39;;;;;;;2.45;2.25;;;21.60;99.90;;;;;;5127525;27;20053;-76
2023/09/09 07:55:06;;;;;;;1.73;1.63;;;21.70;99.90;;;;;;5142705;27;20047;-77
2023/09/09 07:57:31;;;;;;;1.38;1.27;;;21.80;99.90;;;;;;5133372;27;20690;-77
2023/09/09 07:59:57;;;;;;;2.75;2.38;;;21.90;99.90;;;;;;5143671;27;20077;-76
2023/09/09 08:02:23;;;;;;;1.50;0.75;;;22.00;99.90;;;;;;5145468;27;20038;-77
2023/09/09 08:04:49;;;;;;;4.18;1.98;;;22.10;99.90;;;;;;5145990;27;20134;-77
2023/09/09 08:07:14;;;;;;;3.30;1.65;;;22.10;99.90;;;;;;5140213;27;20442;-77
2023/09/09 08:09:40;;;;;;;1.33;1.23;;;22.30;99.90;;;;;;5147727;27;20146;-77
2023/09/09 08:12:06;;;;;;;3.40;2.13;;;22.30;99.90;;;;;;5124576;27;20067;-77
2023/09/09 08:14:32;;;;;;;1.60;1.50;;;22.50;99.90;;;;;;5141943;27;20107;-76
2023/09/09 08:16:58;;;;;;;0.98;0.60;;;22.40;99.90;;;;;;5142288;27;20493;-76
2023/09/09 08:19:23;;;;;;;1.23;1.10;;;22.60;99.90;;;;;;5149079;27;20047;-77
2023/09/09 08:21:49;;;;;;;5.60;1.98;;;22.60;99.90;;;;;;5121694;27;20046;-77
2023/09/09 08:24:15;;;;;;;4.45;1.17;;;22.60;99.90;;;;;;5136355;27;20035;-77
2023/09/09 08:26:40;;;;;;;1.30;1.17;;;22.90;99.90;;;;;;5144925;27;20583;-76
2023/09/09 08:29:06;;;;;;;1.98;1.67;;;22.90;99.90;;;;;;5124370;27;20127;-76
2023/09/09 08:31:32;;;;;;;3.58;1.95;;;23.00;99.90;;;;;;5114315;27;20054;-77
2023/09/09 08:33:57;;;;;;;1.10;1.00;;;23.10;99.90;;;;;;5123851;27;20039;-77
2023/09/09 08:36:23;;;;;;;3.05;2.28;;;23.20;99.90;;;;;;5141358;27;20065;-76
2023/09/09 08:38:49;;;;;;;1.25;1.08;;;23.30;99.90;;;;;;5145411;27;20826;-76
2023/09/09 08:41:33;;;;;;;3.15;2.92;;;23.30;99.90;;;;;;5120293;27;20058;-76
2023/09/09 08:44:06;;;;;;;4.10;2.85;;;23.50;99.90;;;;;;5116543;27;20043;-77
2023/09/09 08:46:33;;;;;;;1.95;1.85;;;23.60;99.90;;;;;;5140425;27;20111;-76
2023/09/09 08:49:02;;;;;;;1.75;1.63;;;23.60;99.90;;;;;;5120732;27;20038;-77
2023/09/09 08:52:06;;;;;;;1.23;1.13;;;23.70;99.90;;;;;;5143161;27;20042;-77
2023/09/09 08:54:32;;;;;;;1.27;1.17;;;23.80;99.90;;;;;;5104332;27;20059;-77
2023/09/09 08:57:00;;;;;;;4.38;2.63;;;23.80;99.90;;;;;;5142936;27;20047;-77
2023/09/09 08:59:27;;;;;;;1.55;1.45;;;23.90;99.90;;;;;;5144512;27;20039;-77
2023/09/09 09:01:54;;;;;;;2.25;1.40;;;24.00;99.90;;;;;;5143363;27;20093;-77
2023/09/09 09:04:21;;;;;;;3.30;1.20;;;24.10;99.90;;;;;;5135271;27;20059;-77
2023/09/09 09:06:51;;;;;;;1.98;1.60;;;24.10;99.90;;;;;;5125847;27;20520;-77
2023/09/09 09:09:17;;;;;;;1.20;1.10;;;24.20;99.90;;;;;;5135366;27;20110;-77
2023/09/09 09:11:43;;;;;;;3.83;0.63;;;24.20;99.90;;;;;;5137914;27;20501;-77
2023/09/09 09:14:09;;;;;;;0.60;0.60;;;24.30;99.90;;;;;;5142221;27;20035;-77
2023/09/09 09:16:39;;;;;;;2.30;2.03;;;24.30;99.90;;;;;;5125205;27;20740;-77
2023/09/09 09:19:05;;;;;;;1.38;1.27;;;24.40;99.90;;;;;;5137138;27;20051;-77
2023/09/09 09:21:35;;;;;;;1.30;1.23;;;24.50;99.90;;;;;;5147481;27;20061;-77
2023/09/09 09:24:02;;;;;;;1.13;0.70;;;24.60;99.90;;;;;;5141279;27;20087;-76
2023/09/09 09:26:29;;;;;;;2.70;2.13;;;24.60;99.90;;;;;;5142617;27;20130;-77
2023/09/09 09:29:04;;;;;;;0.82;0.77;;;24.70;99.90;;;;;;5143226;27;20042;-77
2023/09/09 09:31:30;;;;;;;1.65;1.30;;;24.80;99.90;;;;;;5131772;27;20078;-77
2023/09/09 09:33:58;;;;;;;2.03;1.50;;;24.90;99.90;;;;;;5140782;27;20070;-77
2023/09/09 09:36:25;;;;;;;2.75;2.20;;;25.00;99.90;;;;;;5140479;27;20067;-77
2023/09/09 09:38:52;;;;;;;2.80;1.80;;;25.10;99.90;;;;;;5135403;27;20122;-77
2023/09/09 09:41:18;;;;;;;1.67;0.82;;;25.10;99.90;;;;;;5137893;27;20055;-77
2023/09/09 09:43:48;;;;;;;2.10;2.00;;;25.20;99.90;;;;;;5123155;27;20151;-77
2023/09/09 09:46:16;;;;;;;6.28;1.23;;;25.20;99.90;;;;;;5137989;27;20062;-77
2023/09/09 09:48:43;;;;;;;1.98;1.50;;;25.20;99.90;;;;;;5136588;27;20043;-77
2023/09/09 09:51:09;;;;;;;1.17;1.08;;;25.40;99.90;;;;;;5136608;27;20043;-78
2023/09/09 09:53:52;;;;;;;1.55;1.23;;;25.50;99.90;;;;;;5143110;27;20034;-77
2023/09/09 09:56:19;;;;;;;2.35;1.70;;;25.60;99.90;;;;;;5124808;27;20115;-77
2023/09/09 09:58:48;;;;;;;2.13;1.40;;;25.70;99.90;;;;;;5139771;27;20401;-76
2023/09/09 10:01:14;;;;;;;4.10;1.55;;;25.80;99.90;;;;;;5125343;27;20051;-76
2023/09/09 10:03:49;;;;;;;4.25;1.75;;;25.80;99.90;;;;;;5123598;27;20378;-77
2023/09/09 10:06:21;;;;;;;1.42;1.33;;;25.90;99.90;;;;;;5139541;27;20594;-77
2023/09/09 10:09:00;;;;;;;3.92;2.95;;;25.90;99.90;;;;;;5145589;27;20123;-77
2023/09/09 10:11:31;;;;;;;3.00;2.28;;;26.00;99.90;;;;;;5127007;27;20106;-77
2023/09/09 10:14:14;;;;;;;1.15;1.10;;;26.00;99.90;;;;;;5142917;27;20046;-77
2023/09/09 10:16:44;;;;;;;1.83;1.02;;;26.00;99.90;;;;;;5123962;27;20480;-77
2023/09/09 10:19:14;;;;;;;2.85;2.65;;;26.00;99.90;;;;;;5148083;27;20118;-77
2023/09/09 10:21:41;;;;;;;7.80;2.78;;;26.10;99.90;;;;;;5145460;27;20078;-76
2023/09/09 10:24:07;;;;;;;1.98;1.77;;;26.10;99.90;;;;;;5139747;27;20050;-77
2023/09/09 10:26:34;;;;;;;1.63;1.45;;;26.20;99.90;;;;;;5141772;27;20133;-75
2023/09/09 10:29:00;;;;;;;2.72;1.58;;;26.20;99.90;;;;;;5140770;27;20080;-76
2023/09/09 10:31:30;;;;;;;1.60;1.50;;;26.30;99.90;;;;;;5130679;27;20050;-76
2023/09/09 10:33:57;;;;;;;2.40;1.95;;;26.30;99.90;;;;;;5121230;27;20054;-76
2023/09/09 10:36:24;;;;;;;1.27;1.17;;;26.40;99.90;;;;;;5139536;27;20401;-76
2023/09/09 10:38:55;;;;;;;1.55;1.45;;;26.40;99.90;;;;;;5121860;27;20123;-76
2023/09/09 10:41:22;;;;;;;2.72;1.55;;;26.50;99.90;;;;;;5131724;27;20110;-76
2023/09/09 10:43:47;;;;;;;1.38;1.27;;;26.60;99.90;;;;;;5140915;27;20071;-76
2023/09/09 10:46:13;;;;;;;2.33;1.52;;;26.60;99.90;;;;;;5140161;27;20441;-76
2023/09/09 10:48:42;;;;;;;3.92;1.60;;;26.70;99.90;;;;;;5143555;27;20606;-76
2023/09/09 10:51:08;;;;;;;1.88;1.75;;;26.70;99.90;;;;;;5120185;28;20099;-76
2023/09/09 10:53:35;;;;;;;1.48;1.02;;;26.70;99.90;;;;;;5137804;27;20039;-76
2023/09/09 10:56:23;;;;;;;1.63;1.52;;;26.70;99.90;;;;;;5121309;28;20043;-76
2023/09/09 10:58:52;;;;;;;1.10;0.85;;;26.70;99.90;;;;;;5140074;27;20043;-76
2023/09/09 11:01:25;;;;;;;3.45;2.03;;;26.80;99.90;;;;;;5124315;27;20042;-77
2023/09/09 11:03:52;;;;;;;2.22;1.98;;;26.90;99.90;;;;;;5141624;27;20071;-77
2023/09/09 11:06:21;;;;;;;1.40;1.30;;;26.90;99.90;;;;;;5139553;27;20103;-77
2023/09/09 11:08:47;;;;;;;5.75;1.83;;;26.90;99.90;;;;;;5127460;27;20055;-76
2023/09/09 11:11:18;;;;;;;3.15;1.73;;;27.00;99.90;;;;;;5135074;27;20514;-76
2023/09/09 11:13:54;;;;;;;3.95;2.60;;;27.10;99.90;;;;;;5141780;27;20038;-76
2023/09/09 11:16:23;;;;;;;2.60;1.70;;;27.10;99.90;;;;;;5121036;27;20399;-76
2023/09/09 11:18:51;;;;;;;1.95;1.38;;;27.10;99.90;;;;;;5143879;27;20073;-76
2023/09/09 11:21:22;;;;;;;1.83;1.27;;;27.10;99.90;;;;;;5119313;27;20404;-76
2023/09/09 11:23:52;;;;;;;1.05;1.00;;;27.10;99.90;;;;;;5146284;27;20050;-77
2023/09/09 11:26:18;;;;;;;0.70;0.70;;;27.10;99.90;;;;;;5122191;27;20513;-77
2023/09/09 11:28:47;;;;;;;4.03;1.55;;;27.10;99.90;;;;;;5146073;27;20121;-77
2023/09/09 11:31:14;;;;;;;7.88;1.50;;;27.20;99.90;;;;;;5129624;27;20691;-77
2023/09/09 11:33:39;;;;;;;0.40;0.40;;;27.30;99.90;;;;;;5124524;27;20111;-77
2023/09/09 11:36:06;;;;;;;2.63;1.15;;;27.40;99.90;;;;;;5108493;27;20393;-77
2023/09/09 11:38:32;;;;;;;1.15;1.05;;;27.50;99.90;;;;;;5145293;27;20078;-77
2023/09/09 11:40:58;;;;;;;1.38;1.27;;;27.60;99.90;;;;;;5123743;27;20046;-76
2023/09/09 11:43:24;;;;;;;3.80;1.60;;;27.60;99.90;;;;;;5144143;27;20601;-77
2023/09/09 11:45:51;;;;;;;3.28;1.38;;;27.60;99.90;;;;;;5143644;27;20070;-77
2023/09/09 11:48:17;;;;;;;1.75;1.35;;;27.70;99.90;;;;;;5146080;27;20065;-77
2023/09/09 11:50:45;;;;;;;1.73;1.63;;;27.70;99.90;;;;;;5109680;27;20453;-77
2023/09/09 11:53:12;;;;;;;2.20;2.03;;;27.70;99.90;;;;;;5139128;27;20434;-76
2023/09/09 11:55:38;;;;;;;2.95;1.95;;;27.70;99.90;;;;;;5145481;27;20046;-77
2023/09/09 11:58:04;;;;;;;2.05;1.63;;;27.70;99.90;;;;;;5143725;27;20111;-77
2023/09/09 12:00:30;;;;;;;1.63;1.52;;;27.80;99.90;;;;;;5143421;27;20061;-77
2023/09/09 12:02:56;;;;;;;0.75;0.75;;;27.70;99.90;;;;;;5143947;27;20043;-77
2023/09/09 12:05:30;;;;;;;1.60;1.50;;;27.80;99.90;;;;;;5146247;27;20119;-76
2023/09/09 12:07:57;;;;;;;1.65;1.27;;;27.90;99.90;;;;;;5146783;27;20038;-77
2023/09/09 12:10:26;;;;;;;1.23;1.13;;;27.90;99.90;;;;;;5143584;27;20076;-76
2023/09/09 12:12:52;;;;;;;0.50;0.50;;;27.90;99.90;;;;;;5142167;27;20083;-77
2023/09/09 12:15:19;;;;;;;2.53;1.55;;;27.80;99.90;;;;;;5145267;27;20051;-76
2023/09/09 12:17:44;;;;;;;1.33;1.02;;;27.90;99.90;;;;;;5146722;27;20093;-77
2023/09/09 12:20:10;;;;;;;1.23;1.13;;;27.90;99.90;;;;;;5152318;27;20082;-77
2023/09/09 12:22:50;;;;;;;0.85;0.82;;;28.00;99.90;;;;;;5127586;27;20047;-77
2023/09/09 12:25:32;;;;;;;1.25;0.90;;;28.10;99.90;;;;;;5144785;27;20043;-78
2023/09/09 12:27:59;;;;;;;1.00;1.00;;;28.20;99.90;;;;;;5143663;27;20423;-77
2023/09/09 12:30:31;;;;;;;4.30;3.20;;;28.30;99.90;;;;;;5137751;27;20083;-77
2023/09/09 12:33:10;;;;;;;3.17;1.85;;;28.30;99.90;;;;;;5140268;27;20633;-77
2023/09/09 12:35:38;;;;;;;1.20;1.15;;;28.30;99.90;;;;;;5127978;27;20068;-77
2023/09/09 12:38:05;;;;;;;0.68;0.68;;;28.40;99.90;;;;;;5133739;27;20050;-76
2023/09/09 12:40:50;;;;;;;1.05;0.93;;;28.40;99.90;;;;;;5126411;27;20411;-77
2023/09/09 12:43:26;;;;;;;1.95;0.85;;;28.50;99.90;;;;;;5127919;27;20401;-77
2023/09/09 12:45:53;;;;;;;;;;;28.60;99.90;;;;;;5144248;27;20805;-77
2023/09/09 12:48:19;;;;;;;;;;;28.70;99.90;;;;;;5142235;27;19923;-77
2023/09/09 12:50:45;;;;;;;1.77;1.67;;;28.80;99.90;;;;;;5141288;27;19933;-77
2023/09/09 12:53:11;;;;;;;1.25;1.05;;;28.80;99.90;;;;;;5141946;27;20849;-77
2023/09/09 12:55:37;;;;;;;0.80;0.80;;;28.90;99.90;;;;;;5141567;27;20102;-76
2023/09/09 12:58:03;;;;;;;1.05;0.93;;;28.80;99.90;;;;;;5143410;27;20047;-77
2023/09/09 13:00:29;;;;;;;1.60;1.05;;;28.80;99.90;;;;;;5127065;27;20083;-77
2023/09/09 13:02:55;;;;;;;0.90;0.90;;;28.80;99.90;;;;;;5142792;27;20042;-78
2023/09/09 13:05:21;;;;;;;1.17;0.95;;;28.90;99.90;;;;;;5141786;27;20035;-77